Time;durP1;ratioP1;P1;durP2;ratioP2;P2;SDS_P1;SDS_P2;PMS_P1;PMS_P2;Temp;Humidity;BMP_temperature;BMP_pressure;BME280_temperature;BME280_humidity;BME280_pressure;Samples;Min_cycle;Max_cycle;Signal;HPM_P1;HPM_P2
2023/10/11 00:02:56;;;;;;;14.90;9.60;;;17.10;76.60;;;;;;5044593;28;20046;-83
2023/10/11 00:05:22;;;;;;;15.20;10.43;;;17.10;76.80;;;;;;5022533;28;20033;-84
2023/10/11 00:07:48;;;;;;;16.63;11.35;;;17.20;77.20;;;;;;5032856;28;20040;-84
2023/10/11 00:10:19;;;;;;;18.23;10.23;;;17.10;77.30;;;;;;5033261;28;20091;-83
2023/10/11 00:12:50;;;;;;;16.63;10.35;;;17.10;77.40;;;;;;5030606;28;20034;-84
2023/10/11 00:15:16;;;;;;;17.40;11.13;;;17.20;77.60;;;;;;5044184;28;20055;-83
2023/10/11 00:17:46;;;;;;;18.02;10.88;;;17.10;77.60;;;;;;5034559;28;20044;-84
2023/10/11 00:22:57;;;;;;;19.35;11.07;;;17.10;78.00;;;;;;5045020;28;20124;-84
2023/10/11 00:25:26;;;;;;;15.15;9.73;;;17.00;78.10;;;;;;5013381;28;20152;-83
2023/10/11 00:27:52;;;;;;;19.92;12.05;;;17.20;78.40;;;;;;5060158;28;20038;-83
2023/10/11 00:30:19;;;;;;;16.92;11.13;;;17.10;78.40;;;;;;5029506;28;20033;-84
2023/10/11 00:32:47;;;;;;;23.95;11.43;;;17.20;78.60;;;;;;5029833;28;20073;-83
2023/10/11 00:35:24;;;;;;;17.35;10.48;;;17.10;78.70;;;;;;5030589;28;20041;-84
2023/10/11 00:37:54;;;;;;;18.75;11.55;;;17.10;78.70;;;;;;5047996;28;20226;-83
2023/10/11 00:40:27;;;;;;;16.85;11.43;;;17.10;78.90;;;;;;5048875;28;20044;-84
2023/10/11 00:42:56;;;;;;;16.75;9.13;;;17.10;79.00;;;;;;5048593;28;20069;-84
2023/10/11 00:45:23;;;;;;;24.30;12.70;;;17.10;78.90;;;;;;5033249;28;20034;-84
2023/10/11 00:47:51;;;;;;;20.23;12.10;;;17.10;79.10;;;;;;5034062;28;20037;-84
2023/10/11 00:50:21;;;;;;;17.83;12.23;;;17.10;79.20;;;;;;5033244;28;20461;-83
2023/10/11 00:52:48;;;;;;;16.50;10.75;;;17.10;79.30;;;;;;5038128;28;20482;-83
2023/10/11 00:55:32;;;;;;;20.38;11.55;;;17.10;79.30;;;;;;5033261;28;20052;-84
2023/10/11 00:57:58;;;;;;;15.75;11.18;;;17.10;79.30;;;;;;5032789;28;20045;-83
2023/10/11 01:00:25;;;;;;;19.73;11.50;;;17.00;79.30;;;;;;5034357;28;20186;-83
2023/10/11 01:02:52;;;;;;;23.67;13.00;;;17.30;79.50;;;;;;5033455;28;20406;-84
2023/10/11 01:05:22;;;;;;;18.58;12.63;;;17.10;79.50;;;;;;5033837;28;20443;-83
2023/10/11 01:07:50;;;;;;;22.50;12.98;;;17.10;79.60;;;;;;5047653;28;20077;-83
2023/10/11 01:10:16;;;;;;;22.13;13.70;;;17.10;79.60;;;;;;5055633;28;20087;-83
2023/10/11 01:12:42;;;;;;;23.58;14.13;;;17.10;79.80;;;;;;5052349;28;20135;-83
2023/10/11 01:15:11;;;;;;;19.15;12.75;;;17.10;80.00;;;;;;5067073;28;20060;-83
2023/10/11 01:17:38;;;;;;;18.40;11.57;;;17.10;80.10;;;;;;5035068;28;20041;-83
2023/10/11 01:20:13;;;;;;;16.40;11.73;;;17.10;80.10;;;;;;5026027;28;20045;-83
2023/10/11 01:22:41;;;;;;;21.60;11.80;;;17.10;80.20;;;;;;5031698;28;20042;-83
2023/10/11 01:25:07;;;;;;;21.70;12.23;;;17.00;80.10;;;;;;5039381;28;20040;-84
2023/10/11 01:27:32;;;;;;;22.73;12.75;;;17.10;80.20;;;;;;5034921;28;20040;-84
2023/10/11 01:29:58;;;;;;;20.75;13.52;;;17.10;80.10;;;;;;5035129;28;20037;-83
2023/10/11 01:32:24;;;;;;;24.77;13.73;;;17.10;80.20;;;;;;5032900;28;20049;-83
2023/10/11 01:34:49;;;;;;;26.10;13.75;;;17.00;80.20;;;;;;5032441;28;20045;-84
2023/10/11 01:37:17;;;;;;;26.45;14.07;;;17.10;80.30;;;;;;5031307;28;20068;-83
2023/10/11 01:39:43;;;;;;;24.08;14.18;;;17.10;80.40;;;;;;5014832;28;20052;-84
2023/10/11 01:42:09;;;;;;;28.40;14.85;;;17.00;80.40;;;;;;5031000;28;20041;-84
2023/10/11 01:44:36;;;;;;;22.70;14.13;;;17.10;80.50;;;;;;5014583;28;20071;-84
2023/10/11 01:47:01;;;;;;;20.27;12.88;;;17.30;80.80;;;;;;5051077;28;20116;-83
2023/10/11 01:49:27;;;;;;;23.83;14.80;;;17.00;80.60;;;;;;5051299;28;20515;-84
2023/10/11 01:51:54;;;;;;;21.02;13.45;;;17.10;80.70;;;;;;5051414;28;20032;-84
2023/10/11 01:54:22;;;;;;;23.17;14.55;;;17.20;80.70;;;;;;5049593;28;20053;-84
2023/10/11 01:56:52;;;;;;;25.80;15.23;;;17.10;80.70;;;;;;5049164;28;20132;-84
2023/10/11 01:59:18;;;;;;;27.73;15.23;;;17.10;80.80;;;;;;5037840;28;20478;-83
2023/10/11 02:01:54;;;;;;;24.13;14.38;;;17.10;81.00;;;;;;5031067;28;20052;-84
2023/10/11 02:04:20;;;;;;;22.75;13.88;;;17.00;81.00;;;;;;5030987;28;20037;-83
2023/10/11 02:06:52;;;;;;;28.65;14.98;;;17.10;81.00;;;;;;5030948;28;20044;-83
2023/10/11 02:09:22;;;;;;;18.65;12.95;;;17.20;81.10;;;;;;5064306;28;20049;-83
2023/10/11 02:11:52;;;;;;;22.25;13.52;;;17.20;81.10;;;;;;5057239;28;20064;-83
2023/10/11 02:14:19;;;;;;;23.15;13.93;;;17.00;80.90;;;;;;5029807;28;20049;-84
2023/10/11 02:16:45;;;;;;;23.98;13.98;;;17.00;80.90;;;;;;5034302;28;20045;-84
2023/10/11 02:19:15;;;;;;;24.02;13.98;;;17.00;80.80;;;;;;5033711;28;20040;-84
2023/10/11 02:21:43;;;;;;;26.00;13.85;;;16.90;80.70;;;;;;5051573;28;20538;-83
2023/10/11 02:24:16;;;;;;;24.30;13.65;;;17.20;81.00;;;;;;5037382;28;20041;-83
2023/10/11 02:26:54;;;;;;;22.55;13.55;;;17.00;80.90;;;;;;5031293;28;20064;-83
2023/10/11 02:29:21;;;;;;;22.13;13.90;;;16.90;80.80;;;;;;5044658;28;20049;-83
2023/10/11 02:31:52;;;;;;;23.42;13.10;;;17.00;80.90;;;;;;5041341;28;20549;-84
2023/10/11 02:34:18;;;;;;;19.67;12.75;;;17.20;81.10;;;;;;5045590;28;20194;-83
2023/10/11 02:36:46;;;;;;;18.67;12.18;;;17.00;80.90;;;;;;5055708;28;20179;-83
2023/10/11 02:39:22;;;;;;;21.85;12.15;;;17.00;81.00;;;;;;5053621;28;20135;-83
2023/10/11 02:41:58;;;;;;;21.02;12.50;;;16.90;81.30;;;;;;5059051;28;20032;-84
2023/10/11 02:44:25;;;;;;;17.65;11.18;;;17.00;81.00;;;;;;5033665;28;20525;-83
2023/10/11 02:46:51;;;;;;;22.27;13.35;;;16.90;80.90;;;;;;5033123;28;20493;-83
2023/10/11 02:49:19;;;;;;;22.38;12.18;;;16.90;80.80;;;;;;5033675;28;20037;-83
2023/10/11 02:51:55;;;;;;;23.92;14.15;;;16.90;80.80;;;;;;5033410;28;20037;-83
2023/10/11 02:54:38;;;;;;;19.02;12.32;;;16.90;80.80;;;;;;5054708;28;20081;-84
2023/10/11 02:57:25;;;;;;;21.73;12.13;;;16.90;80.80;;;;;;5017344;28;20499;-84
2023/10/11 02:59:50;;;;;;;24.13;14.18;;;17.00;81.30;;;;;;5052317;28;20492;-83
2023/10/11 03:02:16;;;;;;;21.10;12.18;;;16.80;80.70;;;;;;5071120;28;20112;-83
2023/10/11 03:04:42;;;;;;;20.48;13.32;;;16.80;80.70;;;;;;5041374;28;20444;-83
2023/10/11 03:07:12;;;;;;;25.50;12.70;;;16.90;80.80;;;;;;5033340;28;20484;-83
2023/10/11 03:09:40;;;;;;;25.27;13.18;;;16.80;80.80;;;;;;5033305;28;20059;-83
2023/10/11 03:12:10;;;;;;;21.92;11.77;;;16.80;80.80;;;;;;5049879;28;20443;-84
2023/10/11 03:14:42;;;;;;;23.27;14.38;;;16.80;80.80;;;;;;5052928;28;20536;-83
2023/10/11 03:17:13;;;;;;;19.67;11.57;;;16.80;80.80;;;;;;5053177;28;20040;-83
2023/10/11 03:19:42;;;;;;;26.40;11.82;;;16.80;80.70;;;;;;5053837;28;20045;-83
2023/10/11 03:22:08;;;;;;;19.92;11.13;;;16.80;81.20;;;;;;5057524;28;20118;-83
2023/10/11 03:24:40;;;;;;;16.58;10.82;;;16.80;80.80;;;;;;5077466;28;20195;-83
2023/10/11 03:27:09;;;;;;;24.13;13.18;;;16.80;80.80;;;;;;5054399;28;20037;-83
2023/10/11 03:29:35;;;;;;;24.63;11.13;;;16.80;80.80;;;;;;5070352;28;20042;-84
2023/10/11 03:32:01;;;;;;;20.42;11.95;;;16.80;80.90;;;;;;5052966;28;20123;-84
2023/10/11 03:34:29;;;;;;;14.90;10.73;;;16.80;80.90;;;;;;5025477;28;20424;-83
2023/10/11 03:36:59;;;;;;;25.52;12.73;;;16.80;80.90;;;;;;5053029;28;20081;-83
2023/10/11 03:44:44;;;;;;;20.02;11.70;;;16.80;81.10;;;;;;5050616;28;20044;-83
2023/10/11 03:47:14;;;;;;;18.92;11.85;;;16.70;81.00;;;;;;5035962;28;20041;-84
2023/10/11 03:52:22;;;;;;;21.50;11.65;;;16.70;81.00;;;;;;5033507;28;20071;-83
2023/10/11 03:55:01;;;;;;;19.50;11.35;;;16.80;81.10;;;;;;5033105;28;20102;-83
2023/10/11 03:57:27;;;;;;;17.90;11.07;;;16.90;81.20;;;;;;5036517;28;20044;-84
2023/10/11 03:59:54;;;;;;;25.45;12.98;;;16.70;81.10;;;;;;5037676;28;20041;-84
2023/10/11 04:02:20;;;;;;;23.73;13.70;;;16.70;81.10;;;;;;5035514;28;20048;-84
2023/10/11 04:04:49;;;;;;;20.70;11.80;;;16.70;81.10;;;;;;5064780;28;20067;-84
2023/10/11 04:07:15;;;;;;;24.80;12.57;;;16.70;81.20;;;;;;5048213;28;20068;-83
2023/10/11 04:09:44;;;;;;;24.08;11.27;;;16.70;81.30;;;;;;5080055;28;20037;-84
2023/10/11 04:12:10;;;;;;;23.85;12.40;;;16.80;81.30;;;;;;5044542;28;20041;-84
2023/10/11 04:14:44;;;;;;;20.95;12.70;;;17.00;81.40;;;;;;5043883;28;20044;-83
2023/10/11 04:22:49;;;;;;;22.67;11.90;;;16.80;81.50;;;;;;5035953;28;20121;-83
2023/10/11 04:25:17;;;;;;;28.15;13.77;;;16.80;81.40;;;;;;5069297;28;20055;-84
2023/10/11 04:30:23;;;;;;;21.80;11.75;;;16.80;81.40;;;;;;5036035;28;20048;-83
2023/10/11 04:32:54;;;;;;;31.80;14.25;;;16.90;81.40;;;;;;5019748;28;20481;-84
2023/10/11 04:35:24;;;;;;;23.35;13.02;;;16.80;81.40;;;;;;5035619;28;20055;-84
2023/10/11 04:38:03;;;;;;;20.50;13.55;;;16.80;81.40;;;;;;5019227;28;20397;-83
2023/10/11 04:40:41;;;;;;;26.52;13.07;;;16.90;81.50;;;;;;5041238;28;20443;-83
2023/10/11 04:43:18;;;;;;;34.25;15.13;;;16.90;81.50;;;;;;5044287;28;20444;-83
2023/10/11 04:45:46;;;;;;;20.95;12.55;;;16.90;81.60;;;;;;5035983;28;20040;-84
2023/10/11 04:48:29;;;;;;;23.33;12.93;;;16.90;81.60;;;;;;5036230;28;20041;-83
2023/10/11 04:51:04;;;;;;;21.13;11.93;;;16.90;81.60;;;;;;5035635;28;20059;-83
2023/10/11 04:53:34;;;;;;;26.90;13.65;;;16.90;81.60;;;;;;5032544;28;20043;-83
2023/10/11 04:56:01;;;;;;;24.15;12.73;;;16.90;81.60;;;;;;5034666;28;20041;-84
2023/10/11 04:58:41;;;;;;;23.38;13.60;;;16.90;81.60;;;;;;5035697;28;20052;-83
2023/10/11 05:01:11;;;;;;;24.77;13.40;;;16.90;81.60;;;;;;5041981;28;20049;-83
2023/10/11 05:03:39;;;;;;;27.17;13.32;;;16.90;81.60;;;;;;5054062;28;20045;-83
2023/10/11 05:06:19;;;;;;;22.15;12.70;;;16.90;81.60;;;;;;5035452;28;20090;-84
2023/10/11 05:08:51;;;;;;;21.48;14.48;;;16.90;81.60;;;;;;5036299;28;20501;-83
2023/10/11 05:11:36;;;;;;;24.05;13.75;;;16.90;81.60;;;;;;5036149;28;20037;-83
2023/10/11 05:16:50;;;;;;;23.45;12.82;;;16.90;81.80;;;;;;5046647;28;20083;-83
2023/10/11 05:19:20;;;;;;;25.52;13.68;;;16.90;81.70;;;;;;5044542;28;20421;-83
2023/10/11 05:21:52;;;;;;;26.27;15.45;;;16.90;81.70;;;;;;5060531;28;20039;-83
2023/10/11 05:24:44;;;;;;;25.27;12.82;;;16.90;81.70;;;;;;5064663;28;20405;-82
2023/10/11 05:30:06;;;;;;;24.75;14.52;;;16.90;81.70;;;;;;5056023;28;20378;-84
2023/10/11 05:32:32;;;;;;;25.75;14.70;;;16.90;81.70;;;;;;5037644;28;20049;-85
2023/10/11 05:35:24;;;;;;;29.88;14.77;;;17.00;81.80;;;;;;5036260;28;20051;-83
2023/10/11 05:51:43;;;;;;;27.58;14.85;;;17.10;82.10;;;;;;5055437;28;20068;-81
2023/10/11 05:54:09;;;;;;;27.90;15.52;;;16.90;82.00;;;;;;5054320;28;20431;-83
2023/10/11 05:56:38;;;;;;;27.17;14.75;;;16.80;82.00;;;;;;5048069;28;20032;-83
2023/10/11 05:59:05;;;;;;;25.65;15.45;;;16.80;82.10;;;;;;5050635;28;20048;-83
2023/10/11 06:01:31;;;;;;;27.13;15.68;;;16.80;82.10;;;;;;5051284;28;20037;-82
2023/10/11 06:03:57;;;;;;;22.92;14.13;;;16.90;82.20;;;;;;5036361;28;20036;-83
2023/10/11 06:06:24;;;;;;;28.38;14.50;;;16.90;82.20;;;;;;5054370;28;20037;-82
2023/10/11 06:08:54;;;;;;;25.17;13.43;;;16.80;82.20;;;;;;5050670;28;20040;-83
2023/10/11 06:11:23;;;;;;;23.75;14.30;;;16.80;82.20;;;;;;5063321;28;20083;-83
2023/10/11 06:13:52;;;;;;;25.15;15.45;;;16.80;82.20;;;;;;5034043;28;20166;-82
2023/10/11 06:16:19;;;;;;;28.45;16.25;;;16.90;82.30;;;;;;5017657;28;20041;-81
2023/10/11 06:18:57;;;;;;;25.23;14.90;;;16.80;82.30;;;;;;5033665;28;20045;-83
2023/10/11 06:21:30;;;;;;;22.95;13.88;;;16.90;82.50;;;;;;5034087;28;20044;-82
2023/10/11 06:24:00;;;;;;;26.55;15.13;;;16.90;82.50;;;;;;5034309;28;20041;-82
2023/10/11 06:26:29;;;;;;;26.08;15.57;;;16.90;82.60;;;;;;5017305;28;20120;-82
2023/10/11 06:29:07;;;;;;;28.15;15.43;;;16.80;82.60;;;;;;5034631;28;20132;-82
2023/10/11 06:31:34;;;;;;;31.08;15.75;;;16.80;82.70;;;;;;5034958;28;20037;-83
2023/10/11 06:34:15;;;;;;;27.58;16.75;;;16.90;82.80;;;;;;5018838;28;20037;-83
2023/10/11 06:36:50;;;;;;;25.48;15.55;;;16.90;83.00;;;;;;5052177;28;20052;-82
2023/10/11 06:45:01;;;;;;;23.23;14.85;;;16.80;83.20;;;;;;5034600;28;20052;-83
2023/10/11 06:47:33;;;;;;;30.42;17.40;;;16.90;83.20;;;;;;5034109;28;20075;-82
2023/10/11 06:50:10;;;;;;;32.20;17.90;;;16.90;83.30;;;;;;5039026;28;20041;-83
2023/10/11 06:52:36;;;;;;;27.05;16.52;;;16.80;83.30;;;;;;5059917;28;20128;-83
2023/10/11 06:55:13;;;;;;;30.02;15.90;;;16.90;83.40;;;;;;5039766;28;20056;-82
2023/10/11 06:58:02;;;;;;;34.70;17.10;;;16.90;83.50;;;;;;5026248;28;20471;-82
2023/10/11 07:00:28;;;;;;;33.75;17.75;;;16.90;83.50;;;;;;5070381;28;20073;-82
2023/10/11 07:03:06;;;;;;;33.13;18.85;;;16.90;83.60;;;;;;5073883;28;20033;-83
2023/10/11 07:05:45;;;;;;;33.15;16.77;;;16.90;83.70;;;;;;5034138;28;20107;-83
2023/10/11 07:08:17;;;;;;;27.05;15.43;;;16.90;83.70;;;;;;5033304;28;20048;-82
2023/10/11 07:10:46;;;;;;;28.45;16.80;;;17.00;83.70;;;;;;5016741;28;20048;-82
2023/10/11 07:13:13;;;;;;;33.92;19.33;;;17.00;83.70;;;;;;5016217;28;20106;-82
2023/10/11 07:15:43;;;;;;;32.22;18.98;;;17.00;83.80;;;;;;5032768;28;20053;-83
2023/10/11 07:18:25;;;;;;;30.90;17.48;;;17.00;83.80;;;;;;5033084;28;20064;-83
2023/10/11 07:20:58;;;;;;;26.63;16.33;;;17.00;83.80;;;;;;5033039;28;20045;-82
2023/10/11 07:23:27;;;;;;;31.38;16.23;;;17.20;83.90;;;;;;5033066;28;20494;-82
2023/10/11 07:28:37;;;;;;;31.35;16.90;;;17.30;83.90;;;;;;5032634;28;20053;-82
2023/10/11 07:31:13;;;;;;;28.30;18.33;;;17.00;83.70;;;;;;5033405;28;20037;-84
2023/10/11 07:33:39;;;;;;;27.45;17.42;;;17.10;83.90;;;;;;5047573;28;20126;-82
2023/10/11 07:36:11;;;;;;;30.17;17.35;;;17.10;83.80;;;;;;5051175;28;20497;-82
2023/10/11 07:38:43;;;;;;;29.35;18.70;;;17.10;83.80;;;;;;5032993;28;20045;-83
2023/10/11 07:41:17;;;;;;;34.67;19.02;;;17.20;83.90;;;;;;5033262;28;20495;-83
2023/10/11 07:43:47;;;;;;;30.30;17.27;;;17.20;83.90;;;;;;5033574;28;20657;-83
2023/10/11 07:46:13;;;;;;;31.08;18.60;;;17.20;83.90;;;;;;5033634;28;20037;-82
2023/10/11 07:48:39;;;;;;;32.33;18.08;;;17.30;84.10;;;;;;5035412;28;20052;-83
2023/10/11 07:51:11;;;;;;;28.90;15.88;;;17.30;84.00;;;;;;5038326;28;20402;-82
2023/10/11 07:53:40;;;;;;;34.65;18.05;;;17.20;83.90;;;;;;5040279;28;20044;-82
2023/10/11 07:56:06;;;;;;;31.40;18.35;;;17.30;84.10;;;;;;5020518;28;20040;-83
2023/10/11 07:58:34;;;;;;;29.95;18.58;;;17.30;83.90;;;;;;5036572;28;20041;-82
2023/10/11 08:01:14;;;;;;;37.53;20.20;;;17.30;83.90;;;;;;5058673;28;20044;-85
2023/10/11 08:03:46;;;;;;;35.15;17.58;;;17.30;84.00;;;;;;5039602;28;20037;-83
2023/10/11 08:06:14;;;;;;;32.95;18.42;;;17.30;84.00;;;;;;5019522;28;20033;-83
2023/10/11 08:08:40;;;;;;;30.95;17.88;;;17.30;83.90;;;;;;5054221;28;20482;-83
2023/10/11 08:11:22;;;;;;;26.13;17.60;;;17.30;83.90;;;;;;5054364;28;20063;-83
2023/10/11 08:13:49;;;;;;;28.85;18.08;;;17.40;84.00;;;;;;5035677;28;20041;-83
2023/10/11 08:16:18;;;;;;;27.10;17.17;;;17.40;84.00;;;;;;5054133;28;20081;-83
2023/10/11 08:18:48;;;;;;;32.35;16.95;;;17.40;83.90;;;;;;5052535;28;20117;-83
2023/10/11 08:21:15;;;;;;;36.80;19.52;;;17.40;84.00;;;;;;5035903;28;20095;-82
2023/10/11 08:23:44;;;;;;;26.70;16.98;;;17.40;84.10;;;;;;5052677;28;20067;-83
2023/10/11 08:26:14;;;;;;;31.40;18.27;;;17.40;84.20;;;;;;5035511;28;20478;-83
2023/10/11 08:28:48;;;;;;;35.10;18.75;;;17.50;84.30;;;;;;5053274;28;20497;-83
2023/10/11 08:33:54;;;;;;;29.23;17.38;;;17.40;84.20;;;;;;5040873;28;20044;-83
2023/10/11 08:36:20;;;;;;;31.08;18.52;;;17.50;84.30;;;;;;5073925;28;20051;-82
2023/10/11 08:38:46;;;;;;;31.10;18.27;;;17.40;84.30;;;;;;5056159;28;20070;-82
2023/10/11 08:41:15;;;;;;;30.27;17.65;;;17.50;84.40;;;;;;5074250;28;20068;-83
2023/10/11 08:43:46;;;;;;;34.50;18.58;;;17.50;84.50;;;;;;5073636;28;20145;-83
2023/10/11 08:46:13;;;;;;;41.85;19.50;;;17.60;84.50;;;;;;5056074;28;20033;-83
2023/10/11 08:48:39;;;;;;;31.30;18.42;;;17.60;84.60;;;;;;5056114;28;20128;-82
2023/10/11 08:51:10;;;;;;;27.83;17.13;;;17.70;84.70;;;;;;5056005;28;20072;-83
2023/10/11 08:53:45;;;;;;;29.63;17.33;;;17.60;84.60;;;;;;5056046;28;20036;-83
2023/10/11 08:56:14;;;;;;;29.42;16.63;;;17.60;84.60;;;;;;5039346;28;20083;-83
2023/10/11 08:58:47;;;;;;;28.15;16.33;;;17.70;84.60;;;;;;5055277;28;20044;-83
2023/10/11 09:01:14;;;;;;;30.33;15.23;;;17.70;84.70;;;;;;5052926;28;20052;-82
2023/10/11 09:03:40;;;;;;;23.38;13.60;;;17.60;84.60;;;;;;5038862;28;20045;-82
2023/10/11 09:06:19;;;;;;;22.92;13.48;;;17.70;84.60;;;;;;5055740;28;20091;-83
2023/10/11 09:08:47;;;;;;;20.52;13.95;;;17.70;84.50;;;;;;5037417;28;20033;-83
2023/10/11 09:11:28;;;;;;;23.00;12.70;;;17.80;84.60;;;;;;5019032;28;20044;-83
2023/10/11 09:14:22;;;;;;;22.27;9.98;;;17.80;84.50;;;;;;5035817;28;20124;-83
2023/10/11 09:16:49;;;;;;;19.85;10.85;;;17.90;84.40;;;;;;5019222;28;20471;-83
2023/10/11 09:19:19;;;;;;;21.35;10.18;;;17.90;84.40;;;;;;5035714;28;20048;-83
2023/10/11 09:22:17;;;;;;;19.27;10.15;;;17.90;84.30;;;;;;5035801;28;20114;-83
2023/10/11 09:24:44;;;;;;;15.57;8.90;;;18.00;84.20;;;;;;5035340;28;20040;-84
2023/10/11 09:29:38;;;;;;;14.20;8.45;;;18.20;84.20;;;;;;5039401;28;20043;-83
2023/10/11 09:32:05;;;;;;;21.05;8.73;;;18.00;83.90;;;;;;5055442;28;20072;-84
2023/10/11 09:34:31;;;;;;;17.20;8.45;;;18.00;83.90;;;;;;5053835;28;20060;-83
2023/10/11 09:36:58;;;;;;;15.32;8.40;;;18.00;83.80;;;;;;5056115;28;20519;-85
2023/10/11 09:39:29;;;;;;;14.50;7.40;;;18.00;83.70;;;;;;5056047;28;20041;-83
2023/10/11 09:42:02;;;;;;;15.00;8.13;;;18.00;83.60;;;;;;5058832;28;20048;-84
2023/10/11 09:44:37;;;;;;;17.88;8.48;;;18.00;83.40;;;;;;5058621;28;20051;-83
2023/10/11 09:47:05;;;;;;;17.00;7.95;;;18.10;83.30;;;;;;5062615;28;20135;-84
2023/10/11 09:49:41;;;;;;;15.95;7.80;;;18.10;83.00;;;;;;5071665;28;20037;-85
2023/10/11 09:52:08;;;;;;;15.45;7.70;;;18.10;82.70;;;;;;5074684;28;20070;-83
2023/10/11 09:54:37;;;;;;;13.63;7.47;;;18.50;82.90;;;;;;5091947;28;20033;-83
2023/10/11 09:57:22;;;;;;;15.13;7.28;;;18.30;82.80;;;;;;5070531;28;20079;-83
2023/10/11 10:00:11;;;;;;;15.80;7.95;;;18.40;82.60;;;;;;5079952;28;20036;-84
2023/10/11 10:02:44;;;;;;;14.85;7.18;;;18.30;82.60;;;;;;5055403;28;20161;-83
2023/10/11 10:05:11;;;;;;;16.38;7.30;;;18.30;82.50;;;;;;5036527;28;20041;-85
2023/10/11 10:10:10;;;;;;;16.77;6.80;;;18.40;82.30;;;;;;5033930;28;20045;-84
2023/10/11 10:12:43;;;;;;;10.68;6.07;;;18.40;82.40;;;;;;5034398;28;20041;-84
2023/10/11 10:15:14;;;;;;;11.50;6.60;;;18.50;82.00;;;;;;5033265;28;20048;-84
2023/10/11 10:18:06;;;;;;;13.93;5.82;;;18.60;81.70;;;;;;5017603;28;20128;-83
2023/10/11 10:20:34;;;;;;;12.00;5.57;;;18.60;81.50;;;;;;5034562;28;20649;-83
2023/10/11 10:23:15;;;;;;;10.05;4.50;;;18.60;81.50;;;;;;5034202;28;20485;-83
2023/10/11 10:25:46;;;;;;;12.07;5.32;;;18.90;81.10;;;;;;5033999;28;20523;-83
2023/10/11 10:28:36;;;;;;;10.45;5.40;;;18.70;81.00;;;;;;5017877;28;20080;-83
2023/10/11 10:31:17;;;;;;;8.88;5.03;;;18.80;80.80;;;;;;5049330;28;20396;-83
2023/10/11 10:33:43;;;;;;;11.02;5.18;;;18.80;80.80;;;;;;5045996;28;20041;-82
2023/10/11 10:36:17;;;;;;;14.82;5.53;;;18.80;80.90;;;;;;5033751;28;20052;-83
2023/10/11 10:39:03;;;;;;;9.57;5.22;;;18.90;81.00;;;;;;5051665;28;20448;-82
2023/10/11 10:41:33;;;;;;;10.45;4.63;;;18.90;80.70;;;;;;5051888;28;20044;-81
2023/10/11 10:44:12;;;;;;;10.48;5.03;;;18.90;80.90;;;;;;5051364;28;20044;-85
2023/10/11 10:46:49;;;;;;;9.98;4.75;;;18.90;80.50;;;;;;5033440;28;20116;-85
2023/10/11 10:49:42;;;;;;;10.65;4.57;;;19.00;80.40;;;;;;5033326;28;20084;-83
2023/10/11 10:52:17;;;;;;;9.38;4.50;;;19.10;80.20;;;;;;5033927;28;20037;-84
2023/10/11 10:55:04;;;;;;;9.07;5.03;;;19.10;80.40;;;;;;5032907;28;20048;-83
2023/10/11 10:57:36;;;;;;;11.55;5.18;;;19.10;80.30;;;;;;5033927;28;20098;-82
2023/10/11 11:00:21;;;;;;;9.27;4.95;;;19.10;80.30;;;;;;5060251;28;20097;-82
2023/10/11 11:02:47;;;;;;;10.93;4.20;;;19.20;80.30;;;;;;5068956;28;20067;-85
2023/10/11 11:05:15;;;;;;;9.65;4.43;;;19.30;80.40;;;;;;5052604;28;20036;-83
2023/10/11 11:07:47;;;;;;;12.15;4.45;;;19.50;80.30;;;;;;5051514;28;20088;-81
2023/10/11 11:10:22;;;;;;;8.95;5.25;;;19.40;80.00;;;;;;5021295;28;20044;-82
2023/10/11 11:12:48;;;;;;;11.20;4.85;;;19.40;79.80;;;;;;5033253;28;20048;-83
2023/10/11 11:15:20;;;;;;;10.43;4.38;;;19.50;79.70;;;;;;5017566;28;20045;-83
2023/10/11 11:17:51;;;;;;;8.45;4.53;;;19.50;79.50;;;;;;5033829;28;20052;-81
2023/10/11 11:22:46;;;;;;;10.45;4.97;;;19.60;78.90;;;;;;5069267;28;20059;-84
2023/10/11 11:28:15;;;;;;;9.02;5.03;;;19.70;78.50;;;;;;5071175;28;20055;-84
2023/10/11 11:30:43;;;;;;;10.13;4.72;;;19.80;78.20;;;;;;5057724;28;20048;-83
2023/10/11 11:34:08;;;;;;;10.15;4.53;;;19.80;78.20;;;;;;5051425;28;20041;-83
2023/10/11 11:36:22;;;;;;;12.00;4.82;;;19.80;77.90;;;;;;5040324;28;20174;-84
2023/10/11 11:38:47;;;;;;;9.13;4.20;;;19.90;78.10;;;;;;5033148;28;20091;-85
2023/10/11 11:41:16;;;;;;;7.10;3.90;;;19.80;78.00;;;;;;5051654;28;20033;-83
2023/10/11 11:43:46;;;;;;;10.27;4.78;;;19.90;77.80;;;;;;5055458;28;20050;-84
2023/10/11 11:46:15;;;;;;;6.63;3.95;;;19.90;77.70;;;;;;5041920;28;20032;-83
2023/10/11 11:48:41;;;;;;;11.85;4.35;;;19.90;77.70;;;;;;5071535;28;20051;-83
2023/10/11 11:51:13;;;;;;;12.32;4.57;;;19.90;77.60;;;;;;5070799;28;20047;-83
2023/10/11 11:53:45;;;;;;;6.70;3.78;;;20.00;77.40;;;;;;5071692;28;20095;-85
2023/10/11 11:56:12;;;;;;;9.40;4.22;;;20.20;77.30;;;;;;5061814;28;20053;-84
2023/10/11 11:58:46;;;;;;;9.63;4.65;;;20.00;77.10;;;;;;5025063;28;20041;-83
2023/10/11 12:01:15;;;;;;;9.73;4.18;;;20.00;77.00;;;;;;5033470;28;20037;-84
2023/10/11 12:03:42;;;;;;;11.35;4.32;;;20.00;76.90;;;;;;5036021;28;20041;-83
2023/10/11 12:06:21;;;;;;;11.85;4.57;;;20.00;76.80;;;;;;5052950;28;20044;-80
2023/10/11 12:08:48;;;;;;;10.90;4.65;;;20.00;76.70;;;;;;5069146;28;20051;-83
2023/10/11 12:11:15;;;;;;;10.07;4.93;;;20.10;76.80;;;;;;5047061;28;20120;-85
2023/10/11 12:13:41;;;;;;;8.68;4.50;;;20.10;76.80;;;;;;5053097;28;20417;-85
2023/10/11 12:16:09;;;;;;;9.45;4.38;;;20.10;76.70;;;;;;5036115;28;20045;-84
2023/10/11 12:18:35;;;;;;;9.55;4.47;;;20.10;76.40;;;;;;5018320;28;20051;-84
2023/10/11 12:21:10;;;;;;;10.50;3.78;;;20.10;76.40;;;;;;5031687;28;20048;-84
2023/10/11 12:23:37;;;;;;;9.35;3.97;;;20.20;76.30;;;;;;5030980;28;20212;-83
2023/10/11 12:26:07;;;;;;;6.60;3.88;;;20.20;76.40;;;;;;5048346;28;20045;-84
2023/10/11 12:28:37;;;;;;;11.38;3.97;;;20.20;76.40;;;;;;5049281;28;20481;-85
2023/10/11 12:31:03;;;;;;;7.20;3.88;;;20.20;76.10;;;;;;5031772;28;20540;-86
2023/10/11 12:33:30;;;;;;;11.40;3.78;;;20.20;76.00;;;;;;5050658;28;20072;-84
2023/10/11 12:35:56;;;;;;;6.60;3.80;;;20.30;76.20;;;;;;5072646;28;20117;-84
2023/10/11 12:38:23;;;;;;;8.55;3.97;;;20.30;76.10;;;;;;5056843;28;20057;-83
2023/10/11 12:40:49;;;;;;;7.75;3.85;;;20.30;76.30;;;;;;5064494;28;20202;-84
2023/10/11 12:43:15;;;;;;;11.90;4.35;;;20.40;76.40;;;;;;5071694;28;20025;-83
2023/10/11 12:45:43;;;;;;;8.00;3.67;;;20.40;76.30;;;;;;5074238;28;20035;-83
2023/10/11 12:48:15;;;;;;;6.97;3.92;;;20.40;75.80;;;;;;5064375;28;20076;-85
2023/10/11 12:50:40;;;;;;;8.52;3.65;;;20.50;75.70;;;;;;5053262;28;20328;-85
2023/10/11 12:53:15;;;;;;;7.05;3.67;;;20.50;75.40;;;;;;5052742;28;20426;-84
2023/10/11 12:55:42;;;;;;;7.90;4.00;;;20.50;74.90;;;;;;5052870;28;20069;-84
2023/10/11 12:58:11;;;;;;;10.55;4.05;;;20.50;75.00;;;;;;5053001;28;20425;-85
2023/10/11 13:00:47;;;;;;;6.90;3.10;;;20.50;75.10;;;;;;5053693;28;20119;-83
2023/10/11 13:03:18;;;;;;;8.65;4.00;;;20.50;75.10;;;;;;5051877;28;20457;-85
2023/10/11 13:05:45;;;;;;;8.50;3.53;;;20.50;75.10;;;;;;5036530;28;20030;-85
2023/10/11 13:08:11;;;;;;;8.98;3.38;;;20.50;75.00;;;;;;5033730;28;20053;-84
2023/10/11 13:10:48;;;;;;;8.73;3.50;;;20.50;74.90;;;;;;5034383;28;20041;-84
2023/10/11 13:13:15;;;;;;;7.30;3.20;;;20.50;75.10;;;;;;5032289;28;20049;-85
2023/10/11 13:16:00;;;;;;;6.60;3.13;;;20.50;75.10;;;;;;5032225;28;20366;-84
2023/10/11 13:18:37;;;;;;;6.68;2.92;;;20.60;74.90;;;;;;5032836;28;20057;-85
2023/10/11 13:21:05;;;;;;;9.23;3.08;;;20.60;74.80;;;;;;5032294;28;20367;-83
2023/10/11 13:23:32;;;;;;;7.28;3.40;;;20.60;74.80;;;;;;5033470;28;20057;-84
2023/10/11 13:26:08;;;;;;;7.00;2.95;;;20.60;74.80;;;;;;5032873;28;20056;-85
2023/10/11 13:28:37;;;;;;;7.72;3.38;;;20.60;75.00;;;;;;5015244;28;20505;-84
2023/10/11 13:31:04;;;;;;;6.93;2.90;;;20.60;74.90;;;;;;5032977;28;20049;-84
2023/10/11 13:33:31;;;;;;;9.52;3.47;;;20.60;74.80;;;;;;5031681;28;20049;-83
2023/10/11 13:36:05;;;;;;;8.38;3.47;;;20.70;74.90;;;;;;5031695;28;20051;-84
2023/10/11 13:38:31;;;;;;;9.15;3.47;;;20.70;74.80;;;;;;5031714;28;20080;-85
2023/10/11 13:41:00;;;;;;;7.65;3.05;;;20.60;75.30;;;;;;5048463;28;20103;-83
2023/10/11 13:43:26;;;;;;;12.98;3.55;;;20.70;74.80;;;;;;5034982;28;20044;-83
2023/10/11 13:46:01;;;;;;;9.77;4.13;;;20.70;74.70;;;;;;5051286;28;20041;-85
2023/10/11 13:48:36;;;;;;;8.73;2.80;;;20.70;74.60;;;;;;5052226;28;20036;-84
2023/10/11 13:51:03;;;;;;;7.43;2.38;;;20.70;75.10;;;;;;5051153;28;20056;-84
2023/10/11 13:53:30;;;;;;;8.93;3.30;;;20.70;74.70;;;;;;5051098;28;20060;-83